Airfield :
LOGIN :

Register | Disclaimer

   EN    FR    IT 

 










Legend :    VFR   Marginal VFR   IFR   Intensive IFR   Very Intensive IFR
Visi :
Ceiling :
>= 8 km
>= 3000ft
5 to 8 km
1000 to 3000 ft
1500m to 5 km
500 to 1000 ft
800 to 1500m
200 to 500 ft
< 800m
< 200 ft
Symbols :   Thunderstorms  Fog  Heavy snow  Heavy precipitations  Wind > 20 kt
SIGMETs :     Misc.  Thunderstorms  Icing  Turbulence  Mountain Waves  Volcanic Ashes






- Airport Elevation : 13 ft
- IATA code : OST


EBOS - Oostend bruges Int.

CURRENT METAR :
  • 252150Z 31038G51KT 8000 -RA FEW019 BKN025 11/08 Q1000 NOSIG

EXPIRED METARs :
  • 252120Z 31035G48KT 8000 -RA FEW022 BKN026 11/08 Q1000 NOSIG
  • 252050Z 30035G47KT 9000 -RA FEW018 BKN026 12/08 Q1000 NOSIG
  • 252020Z 30034G49KT 9999 -RA FEW018 BKN026 11/07 Q1000 NOSIG
  • 251950Z 30035G48KT 8000 -RA FEW018 BKN024 12/08 Q1000 NOSIG

TAF TAF EBOS
Valid from the 25 at 18:00 until the 27 at 00:00 UTC


251710Z 2518/2624 27020G35KT 9999 BKN020
TEMPO 2518/2618 4000 SHRA BKN012CB
PROB30
TEMPO 2518/2618 TSRA
TEMPO 2518/2524 28030G50KT



MET'MAP, your aeronautical weather chart ! - Copyright ORBIFLY December 2007 - Disclaimer

ORBIFLY MET'MAP TEAM :

Programming & Development : Alexandra Zaïnal
Concept & original design : Baudouin d'Aumeries
Assistance for programming : Marc-Olivier Méhu
Technical & hardware support : Manuel Goepfert

Contact : metmap@orbifly.com




SOURCES & CREDITS :

   NOAA